Time;durP1;ratioP1;P1;durP2;ratioP2;P2;SDS_P1;SDS_P2;PMS_P1;PMS_P2;Temp;Humidity;BMP_temperature;BMP_pressure;BME280_temperature;BME280_humidity;BME280_pressure;Samples;Min_cycle;Max_cycle;Signal;HPM_P1;HPM_P2
2022/10/12 04:01:24;;;;;;;21.63;11.90;;;;;;;11.01;100.00;101222.97;6544224;26;20164;-89
2022/10/12 04:04:27;;;;;;;18.67;10.65;;;;;;;10.98;100.00;101225.97;6662949;26;34492;-91
2022/10/12 04:07:30;;;;;;;22.60;12.48;;;;;;;10.92;100.00;101215.00;6662130;26;34747;-92
2022/10/12 04:10:33;;;;;;;19.37;11.77;;;;;;;10.82;100.00;101213.28;6662104;26;36272;-92
2022/10/12 04:13:35;;;;;;;17.33;10.63;;;;;;;10.81;100.00;101216.09;6661927;26;34284;-92
2022/10/12 04:16:38;;;;;;;22.62;12.15;;;;;;;10.78;100.00;101216.44;6665162;26;34666;-89
2022/10/12 04:19:41;;;;;;;18.15;10.95;;;;;;;10.70;100.00;101216.37;6664211;26;35073;-88
2022/10/12 04:22:44;;;;;;;19.90;11.90;;;;;;;10.68;100.00;101211.16;6662579;26;33481;-90
2022/10/12 04:25:46;;;;;;;21.23;12.07;;;;;;;10.64;100.00;101223.22;6662024;26;35422;-90
2022/10/12 04:28:49;;;;;;;25.62;12.90;;;;;;;10.61;100.00;101218.16;6670441;26;33665;-90
2022/10/12 04:31:52;;;;;;;20.35;11.73;;;;;;;10.56;100.00;101215.09;6663931;26;34171;-90
2022/10/12 04:34:54;;;;;;;19.70;11.48;;;;;;;10.50;100.00;101221.09;6648073;26;32693;-89
2022/10/12 04:37:57;;;;;;;20.45;12.18;;;;;;;10.50;100.00;101221.09;6649165;26;34211;-88
2022/10/12 04:41:00;;;;;;;20.45;11.38;;;;;;;10.47;100.00;101216.03;6664796;26;34040;-88
2022/10/12 04:44:05;;;;;;;19.12;12.68;;;;;;;10.41;100.00;101218.38;6665916;26;34218;-88
2022/10/12 04:47:08;;;;;;;21.20;12.35;;;;;;;10.35;100.00;101213.56;6664727;26;33702;-88
2022/10/12 04:50:10;;;;;;;20.70;11.63;;;;;;;10.35;100.00;101221.66;6664276;26;33787;-88
2022/10/12 04:53:13;;;;;;;23.55;12.45;;;;;;;10.32;100.00;101219.28;6662055;26;34582;-88
2022/10/12 04:56:16;;;;;;;21.83;12.00;;;;;;;10.30;100.00;101220.47;6641099;26;34306;-88
2022/10/12 04:59:19;;;;;;;21.80;12.90;;;;;;;10.31;100.00;101228.38;6662266;26;35235;-88
2022/10/12 05:02:22;;;;;;;20.75;11.27;;;;;;;10.25;100.00;101220.03;6662973;26;34013;-88
2022/10/12 05:05:24;;;;;;;21.20;12.13;;;;;;;10.22;100.00;101229.25;6662662;26;35184;-87
2022/10/12 05:08:27;;;;;;;23.85;12.65;;;;;;;10.16;100.00;101230.72;6662285;26;34993;-88
2022/10/12 05:11:30;;;;;;;21.62;12.68;;;;;;;10.20;100.00;101234.78;6662812;26;34587;-87
2022/10/12 05:14:33;;;;;;;24.37;12.43;;;;;;;10.25;100.00;101239.72;6663579;26;34408;-88
2022/10/12 05:17:37;;;;;;;22.40;11.82;;;;;;;10.33;100.00;101247.91;6662320;26;34052;-88
2022/10/12 05:20:41;;;;;;;18.45;11.63;;;;;;;10.37;100.00;101243.03;6663338;26;34647;-88
2022/10/12 05:23:44;;;;;;;23.05;11.75;;;;;;;10.47;100.00;101243.81;6641971;26;32512;-88
2022/10/12 05:26:46;;;;;;;17.80;11.15;;;;;;;10.65;100.00;101251.88;6663909;26;34813;-88
2022/10/12 05:29:49;;;;;;;21.20;11.82;;;;;;;10.78;100.00;101241.50;6663454;26;34788;-88
2022/10/12 05:32:51;;;;;;;20.12;11.82;;;;;;;10.81;100.00;101246.56;6663217;26;34970;-88
2022/10/12 05:35:54;;;;;;;19.08;11.73;;;;;;;10.81;100.00;101243.87;6664056;26;33717;-88
2022/10/12 05:38:58;;;;;;;21.50;12.40;;;;;;;10.84;100.00;101242.72;6644955;26;32384;-88
2022/10/12 05:42:01;;;;;;;20.40;11.48;;;;;;;10.95;100.00;101249.72;6663208;26;33571;-88
2022/10/12 05:45:03;;;;;;;20.15;10.07;;;;;;;11.06;100.00;101250.28;6642586;26;32712;-88
2022/10/12 05:48:06;;;;;;;17.25;10.98;;;;;;;11.24;100.00;101250.22;6662892;26;35337;-87
2022/10/12 05:51:09;;;;;;;23.27;11.63;;;;;;;11.30;100.00;101246.87;6662156;26;34097;-88
2022/10/12 05:54:11;;;;;;;20.45;12.15;;;;;;;11.35;100.00;101251.78;6661887;26;34867;-88
2022/10/12 05:57:14;;;;;;;20.77;11.07;;;;;;;11.46;100.00;101256.87;6662366;26;34361;-88
2022/10/12 06:00:17;;;;;;;27.73;11.73;;;;;;;11.57;100.00;101256.56;6642945;26;33327;-88
2022/10/12 06:03:21;;;;;;;22.92;12.37;;;;;;;11.65;100.00;101260.34;6663502;26;33554;-88
2022/10/12 06:06:27;;;;;;;21.52;11.80;;;;;;;11.70;100.00;101263.34;6663403;26;33609;-88
2022/10/12 06:09:31;;;;;;;25.77;13.98;;;;;;;11.78;100.00;101274.19;6663037;26;33910;-88
2022/10/12 06:12:34;;;;;;;23.30;11.93;;;;;;;11.83;100.00;101276.41;6663300;26;33674;-88
2022/10/12 06:15:37;;;;;;;23.08;12.48;;;;;;;11.94;100.00;101273.44;6662818;26;33992;-88
2022/10/12 06:18:39;;;;;;;23.10;12.20;;;;;;;12.14;100.00;101274.84;6642639;26;32561;-88
2022/10/12 06:21:42;;;;;;;27.13;13.23;;;;;;;12.21;100.00;101272.31;6662118;26;33576;-88
2022/10/12 06:24:44;;;;;;;27.60;13.70;;;;;;;12.39;100.00;101269.44;6641972;26;32781;-88
2022/10/12 06:27:47;;;;;;;24.63;13.18;;;;;;;12.54;100.00;101275.88;6662831;26;34877;-88
2022/10/12 06:30:58;;;;;;;22.50;12.32;;;;;;;12.77;100.00;101276.03;6662598;26;34901;-88
2022/10/12 06:34:01;;;;;;;29.55;13.27;;;;;;;12.86;100.00;101274.16;6672026;26;34304;-92
2022/10/12 06:37:03;;;;;;;24.00;13.18;;;;;;;13.00;100.00;101281.56;6646776;26;33636;-93
2022/10/12 06:40:07;;;;;;;26.85;13.02;;;;;;;13.15;100.00;101276.31;6662001;26;34885;-89
2022/10/12 06:43:09;;;;;;;26.62;12.65;;;;;;;13.34;100.00;101278.66;6642771;26;32641;-89
2022/10/12 06:46:12;;;;;;;19.27;12.48;;;;;;;13.51;100.00;101278.59;6642281;26;33265;-88
2022/10/12 06:49:16;;;;;;;21.05;13.27;;;;;;;13.72;100.00;101281.56;6661498;26;34571;-88
2022/10/12 06:52:19;;;;;;;21.92;13.02;;;;;;;13.81;100.00;101285.91;6662363;26;35253;-89
2022/10/12 06:55:21;;;;;;;21.98;13.40;;;;;;;14.12;100.00;101284.22;6665977;26;34082;-89
2022/10/12 06:58:24;;;;;;;21.58;13.15;;;;;;;14.43;98.91;101287.72;6670879;26;33912;-88
2022/10/12 07:01:26;;;;;;;20.67;13.27;;;;;;;14.74;96.55;101300.38;6662305;26;34911;-88
2022/10/12 07:04:29;;;;;;;23.42;14.50;;;;;;;14.97;94.21;101300.34;6665706;26;34321;-88
2022/10/12 07:07:34;;;;;;;23.52;13.40;;;;;;;15.15;94.17;101295.44;6671625;26;33866;-89
2022/10/12 07:10:36;;;;;;;22.17;13.70;;;;;;;15.19;90.43;101298.59;6651650;26;33123;-89
2022/10/12 07:13:39;;;;;;;25.27;13.38;;;;;;;15.12;89.33;101301.22;6641132;26;32439;-88
2022/10/12 07:16:42;;;;;;;19.60;12.90;;;;;;;15.20;89.98;101301.13;6661282;26;33785;-88
2022/10/12 07:19:45;;;;;;;18.95;12.55;;;;;;;15.30;91.19;101298.16;6662578;26;33624;-88
2022/10/12 07:22:48;;;;;;;19.83;12.50;;;;;;;15.42;90.86;101301.25;6641769;26;33356;-88
2022/10/12 07:25:51;;;;;;;22.35;13.55;;;;;;;15.48;86.75;101297.78;6641041;26;33681;-88
2022/10/12 07:28:54;;;;;;;19.30;12.95;;;;;;;15.51;87.62;101293.84;6660664;26;34313;-89
2022/10/12 07:31:57;;;;;;;22.20;12.75;;;;;;;15.62;88.56;101298.81;6661816;26;33865;-88
2022/10/12 07:35:00;;;;;;;23.30;12.73;;;;;;;15.62;86.90;101298.81;6641159;26;33105;-88
2022/10/12 07:38:03;;;;;;;19.95;12.35;;;;;;;15.80;85.83;101295.72;6661626;26;35343;-88
2022/10/12 07:41:06;;;;;;;20.33;12.57;;;;;;;15.85;82.68;101291.41;6661617;26;34330;-88
2022/10/12 07:44:09;;;;;;;20.10;12.32;;;;;;;15.83;83.62;101289.91;6660311;26;34835;-88
2022/10/12 07:47:12;;;;;;;20.40;12.48;;;;;;;15.82;83.16;101291.78;6640183;26;33950;-88
2022/10/12 07:50:15;;;;;;;23.27;11.77;;;;;;;15.70;84.93;101277.00;6641137;26;32795;-88
2022/10/12 07:53:18;;;;;;;15.77;11.18;;;;;;;15.83;82.48;101289.91;6641146;26;32219;-88
2022/10/12 07:56:21;;;;;;;22.62;12.02;;;;;;;15.94;82.71;101289.44;6662355;26;33669;-88
2022/10/12 07:59:23;;;;;;;19.17;11.70;;;;;;;16.13;81.27;101277.09;6662282;26;33675;-88
2022/10/12 08:02:26;;;;;;;18.00;11.48;;;;;;;16.39;78.96;101284.69;6641518;26;33568;-88
2022/10/12 08:05:29;;;;;;;19.27;12.00;;;;;;;16.30;78.55;101283.97;6662791;26;33921;-88
2022/10/12 08:08:34;;;;;;;18.20;11.20;;;;;;;16.30;78.00;101288.56;6642374;26;32617;-88
2022/10/12 08:11:39;;;;;;;18.40;11.30;;;;;;;16.31;78.12;101291.06;6662193;26;33921;-88
2022/10/12 08:14:41;;;;;;;17.85;11.02;;;;;;;16.49;77.19;101282.47;6641674;26;33800;-88
2022/10/12 08:17:44;;;;;;;17.35;10.68;;;;;;;16.70;78.94;101284.34;6662100;26;33864;-88
2022/10/12 08:20:47;;;;;;;17.73;11.27;;;;;;;16.75;77.18;101283.75;6663454;26;33617;-89
2022/10/12 08:23:50;;;;;;;17.30;10.48;;;;;;;16.81;76.58;101288.44;6662069;26;33898;-89
2022/10/12 08:26:52;;;;;;;19.10;10.95;;;;;;;16.95;74.90;101284.78;6661619;26;34978;-88
2022/10/12 08:30:03;;;;;;;17.42;10.57;;;;;;;17.14;75.17;101280.53;6663136;26;33945;-88
2022/10/12 08:33:06;;;;;;;17.42;11.15;;;;;;;17.40;74.09;101284.44;6663656;26;34084;-89
2022/10/12 08:36:12;;;;;;;23.20;10.95;;;;;;;16.93;74.32;101286.00;6667330;26;33797;-88
2022/10/12 08:39:16;;;;;;;19.42;11.20;;;;;;;17.11;74.35;101280.94;6624636;26;33007;-88
2022/10/12 08:42:34;;;;;;;17.75;11.00;;;;;;;17.30;73.77;101282.09;6663098;26;34300;-88
2022/10/12 08:45:58;;;;;;;20.77;11.13;;;;;;;17.44;72.91;101281.13;6663995;26;35484;-91
2022/10/12 08:49:16;;;;;;;18.33;11.07;;;;;;;17.69;71.51;101272.44;6662562;26;33952;-89
2022/10/12 08:52:42;;;;;;;16.70;10.65;;;;;;;17.78;71.40;101273.97;6662160;26;34395;-88
2022/10/12 08:55:46;;;;;;;18.40;10.82;;;;;;;17.56;70.81;101273.22;6662295;26;34380;-88
2022/10/12 08:58:50;;;;;;;20.80;11.82;;;;;;;17.60;72.42;101276.38;6642549;26;32569;-88
2022/10/12 09:02:18;;;;;;;19.10;11.27;;;;;;;17.79;71.22;101281.13;6643377;26;32541;-88
2022/10/12 09:05:33;;;;;;;20.67;11.63;;;;;;;17.74;71.27;101285.47;6665205;26;33838;-88
2022/10/12 09:09:04;;;;;;;21.10;11.50;;;;;;;17.92;70.41;101280.31;6641364;26;32145;-88
2022/10/12 09:12:27;;;;;;;22.00;11.40;;;;;;;18.12;70.68;101280.41;6662040;26;34443;-88
2022/10/12 09:15:36;;;;;;;28.25;11.65;;;;;;;18.14;70.33;101286.50;6659438;26;34133;-88
2022/10/12 09:18:44;;;;;;;21.30;11.82;;;;;;;17.97;70.03;101290.63;6669990;26;34104;-88
2022/10/12 09:21:49;;;;;;;19.17;11.70;;;;;;;17.92;69.68;101290.38;6665499;26;34195;-88
2022/10/12 09:24:52;;;;;;;17.40;10.90;;;;;;;17.82;70.13;101285.34;6664232;26;34713;-88
2022/10/12 09:28:11;;;;;;;19.67;11.12;;;;;;;18.27;69.40;101281.06;6662844;26;34299;-88
2022/10/12 09:31:43;;;;;;;20.02;10.55;;;;;;;18.44;68.01;101291.59;6663786;26;34429;-88
2022/10/12 09:34:47;;;;;;;15.85;10.05;;;;;;;18.47;69.66;101282.97;6650633;26;32478;-88
2022/10/12 09:37:52;;;;;;;18.27;11.20;;;;;;;18.51;68.67;101285.06;6665524;26;33838;-88
2022/10/12 09:40:55;;;;;;;15.95;10.23;;;;;;;18.63;67.52;101279.84;6659066;26;35170;-88
2022/10/12 09:44:00;;;;;;;17.65;10.98;;;;;;;18.81;66.28;101276.53;6638699;26;33814;-88
2022/10/12 09:47:28;;;;;;;15.90;9.60;;;;;;;18.76;66.32;101281.78;6666425;26;33902;-88
2022/10/12 09:50:53;;;;;;;14.13;9.63;;;;;;;18.93;64.96;101282.19;6680675;26;34029;-88
2022/10/12 09:54:02;;;;;;;16.27;9.48;;;;;;;19.06;63.65;101289.53;6663967;26;33750;-88
2022/10/12 09:57:06;;;;;;;15.45;9.15;;;;;;;19.12;62.84;101285.94;6663406;26;33632;-87
2022/10/12 10:00:39;;;;;;;16.27;9.05;;;;;;;18.92;62.89;101286.78;6664087;26;33810;-87
2022/10/12 10:03:43;;;;;;;13.85;8.02;;;;;;;19.00;62.68;101283.84;6630588;26;34017;-88
2022/10/12 10:06:45;;;;;;;12.65;7.65;;;;;;;19.33;63.16;101282.13;6664052;26;34131;-88
2022/10/12 10:10:09;;;;;;;15.93;8.02;;;;;;;19.62;59.82;101286.25;6642824;26;33182;-88
2022/10/12 10:13:14;;;;;;;12.68;7.85;;;;;;;19.74;59.75;101287.28;6642207;26;32958;-88
2022/10/12 10:16:21;;;;;;;13.57;7.97;;;;;;;19.58;60.03;101282.28;6661390;26;33604;-88
2022/10/12 10:19:25;;;;;;;11.90;7.60;;;;;;;19.55;60.28;101280.81;6661356;26;34551;-88
2022/10/12 10:22:29;;;;;;;16.65;7.70;;;;;;;19.86;59.80;101281.97;6640196;26;32838;-88
2022/10/12 10:25:33;;;;;;;14.85;7.50;;;;;;;20.06;58.48;101277.25;6660750;26;35239;-88
2022/10/12 10:28:37;;;;;;;12.35;7.07;;;;;;;19.93;59.00;101283.63;6661235;26;33590;-88
2022/10/12 10:31:40;;;;;;;17.58;8.63;;;;;;;20.26;59.65;101284.50;6641358;26;33544;-88
2022/10/12 10:34:43;;;;;;;13.55;8.27;;;;;;;20.26;57.43;101284.50;6661774;26;34079;-88
2022/10/12 10:37:49;;;;;;;13.77;8.60;;;;;;;20.21;57.21;101285.19;6661906;26;35216;-88
2022/10/12 10:40:55;;;;;;;16.62;8.40;;;;;;;19.65;59.21;101280.38;6664108;26;33940;-88
2022/10/12 10:43:58;;;;;;;14.87;8.57;;;;;;;19.92;58.83;101284.69;6660774;26;35380;-88
2022/10/12 10:47:11;;;;;;;16.20;8.43;;;;;;;19.90;59.76;101280.50;6660217;26;34787;-88
2022/10/12 10:50:31;;;;;;;13.95;8.27;;;;;;;19.78;60.41;101274.03;6660587;26;34243;-88
2022/10/12 10:53:49;;;;;;;14.68;8.13;;;;;;;19.86;59.26;101276.50;6660689;26;33986;-88
2022/10/12 10:57:01;;;;;;;14.82;8.48;;;;;;;20.05;57.63;101272.00;6660508;26;33697;-88
2022/10/12 11:00:10;;;;;;;13.88;8.45;;;;;;;20.15;58.29;101273.22;6659156;26;35135;-92
2022/10/12 11:03:56;;;;;;;13.73;8.35;;;;;;;20.01;57.02;101266.16;6659742;26;34161;-88
2022/10/12 11:07:08;;;;;;;16.15;8.18;;;;;;;19.65;59.12;101264.81;6659935;26;34201;-88
2022/10/12 11:10:26;;;;;;;13.93;8.43;;;;;;;19.74;59.30;101257.22;6639310;26;32830;-88
2022/10/12 11:13:54;;;;;;;15.43;8.18;;;;;;;19.92;58.72;101260.09;6657537;26;34413;-88
2022/10/12 11:17:02;;;;;;;13.62;8.25;;;;;;;20.16;58.88;101265.84;6658039;26;34626;-88
2022/10/12 11:20:38;;;;;;;12.35;8.05;;;;;;;20.33;58.75;101247.03;6659278;26;33989;-88
2022/10/12 11:24:15;;;;;;;13.75;8.00;;;;;;;20.27;57.43;101256.09;6656965;26;34084;-87
2022/10/12 11:27:40;;;;;;;12.75;8.18;;;;;;;20.22;58.01;101248.56;6632665;26;148816;-87
2022/10/12 11:30:48;;;;;;;13.48;7.97;;;;;;;20.38;56.19;101253.47;6662804;26;33951;-87
2022/10/12 11:33:53;;;;;;;15.23;8.18;;;;;;;20.53;57.27;101255.97;6678416;26;34716;-87
2022/10/12 11:36:56;;;;;;;13.35;8.07;;;;;;;20.81;57.76;101254.66;6659700;26;32317;-87
2022/10/12 11:40:24;;;;;;;14.57;8.30;;;;;;;21.09;55.50;101243.25;6663890;26;33863;-87
2022/10/12 11:44:19;;;;;;;11.88;7.05;;;;;;;21.17;55.55;101253.87;6663592;26;34643;-88
2022/10/12 11:47:31;;;;;;;10.70;6.82;;;;;;;21.78;52.56;101254.06;6602230;26;34816;-88
2022/10/12 11:50:38;;;;;;;11.10;6.55;;;;;;;21.41;51.80;101238.50;6661817;26;33577;-87
2022/10/12 11:53:59;;;;;;;10.38;6.45;;;;;;;21.62;52.93;101241.84;6661682;26;35123;-87
2022/10/12 11:57:11;;;;;;;10.35;7.03;;;;;;;21.59;52.63;101231.34;6639902;26;32436;-88
2022/10/12 12:00:18;;;;;;;11.38;6.87;;;;;;;21.63;52.21;101227.06;6640330;26;32572;-88
2022/10/12 12:04:12;;;;;;;11.73;6.85;;;;;;;21.47;53.09;101232.09;6661185;26;33709;-88
2022/10/12 12:08:01;;;;;;;11.38;6.80;;;;;;;21.56;52.68;101229.03;6611162;26;32461;-87
2022/10/12 12:11:25;;;;;;;12.35;7.28;;;;;;;21.31;54.09;101229.94;6661585;26;34578;-87
2022/10/12 12:14:28;;;;;;;11.15;6.93;;;;;;;20.90;54.34;101227.84;6641097;26;33830;-87
2022/10/12 12:17:33;;;;;;;11.88;6.70;;;;;;;20.79;53.63;101223.94;6672329;26;34659;-87
2022/10/12 12:20:45;;;;;;;12.13;7.00;;;;;;;20.54;55.21;101219.31;6673870;26;34217;-87
2022/10/12 12:23:53;;;;;;;10.93;6.93;;;;;;;20.66;56.15;101216.69;6661929;26;35170;-92
2022/10/12 12:26:55;;;;;;;9.38;6.30;;;;;;;;;;6663008;26;35516;-87
2022/10/12 12:30:00;;;;;;;10.88;6.75;;;;;;;20.98;54.75;101214.69;6656535;26;32845;-88
2022/10/12 12:33:25;;;;;;;14.45;7.00;;;;;;;20.89;54.84;101227.00;6657960;26;33413;-88
2022/10/12 12:36:34;;;;;;;10.55;7.25;;;;;;;20.79;54.51;101219.28;6661784;26;34808;-87
2022/10/12 12:39:38;;;;;;;;;;;;;;;20.90;53.68;101211.41;6662022;26;33882;-87
2022/10/12 12:42:41;;;;;;;14.80;7.22;;;;;;;20.61;55.25;101216.53;6660695;26;35088;-87
2022/10/12 12:46:10;;;;;;;13.52;7.93;;;;;;;20.40;55.48;101212.25;6661277;26;34779;-87
2022/10/12 12:49:36;;;;;;;15.38;6.87;;;;;;;20.26;55.64;101210.66;6661181;26;34069;-87
2022/10/12 12:52:39;;;;;;;11.27;6.97;;;;;;;20.32;56.26;101207.03;6660981;26;33663;-87
2022/10/12 12:55:58;;;;;;;11.12;7.70;;;;;;;20.56;56.94;101203.53;6660901;26;34332;-87
2022/10/12 12:59:41;;;;;;;12.55;7.62;;;;;;;20.78;54.15;101211.31;6640687;26;33603;-87
2022/10/12 13:02:47;;;;;;;12.68;7.53;;;;;;;20.74;55.30;101208.22;6640246;26;32551;-88
2022/10/12 13:06:28;;;;;;;12.65;7.95;;;;;;;20.41;54.15;101208.44;6661186;26;33962;-87
2022/10/12 13:09:59;;;;;;;12.40;7.15;;;;;;;20.22;55.54;101203.97;6660729;26;35022;-87
2022/10/12 13:13:34;;;;;;;10.55;7.07;;;;;;;20.10;57.51;101196.47;6661002;26;34705;-87
2022/10/12 13:17:08;;;;;;;12.17;7.73;;;;;;;20.26;57.38;101205.19;6661237;26;34049;-87
2022/10/12 13:20:36;;;;;;;14.25;8.27;;;;;;;20.41;56.64;101200.25;6661633;26;33597;-91
2022/10/12 13:23:39;;;;;;;12.90;8.07;;;;;;;20.38;55.59;101193.31;6660950;26;34754;-88
2022/10/12 13:26:49;;;;;;;13.38;8.20;;;;;;;20.31;54.82;101200.75;6640283;26;32745;-88
2022/10/12 13:30:01;;;;;;;11.48;7.62;;;;;;;20.16;56.52;101198.34;6660894;26;35081;-88
2022/10/12 13:33:10;;;;;;;10.88;6.90;;;;;;;20.09;57.89;101193.97;6640379;26;35170;-88
2022/10/12 13:36:20;;;;;;;13.18;7.15;;;;;;;20.01;57.65;101202.44;6660738;26;34468;-88
2022/10/12 13:39:23;;;;;;;13.75;7.53;;;;;;;20.03;57.34;101189.37;6660877;26;34037;-87
2022/10/12 13:42:30;;;;;;;12.02;6.72;;;;;;;20.02;57.33;101196.75;6661896;26;34882;-88
2022/10/12 13:45:33;;;;;;;10.40;6.95;;;;;;;20.01;57.62;101188.78;6640355;26;32812;-88
2022/10/12 13:48:36;;;;;;;11.93;7.65;;;;;;;19.96;58.67;101200.34;6641357;26;32303;-87
2022/10/12 13:52:03;;;;;;;15.82;7.60;;;;;;;19.98;57.54;101191.94;6662054;26;35073;-88
2022/10/12 13:55:15;;;;;;;14.60;7.47;;;;;;;19.99;57.80;101197.19;6641717;26;32672;-87
2022/10/12 13:58:26;;;;;;;11.20;6.95;;;;;;;20.08;57.21;101179.47;6662059;26;33940;-87
2022/10/12 14:01:29;;;;;;;12.50;7.75;;;;;;;19.83;57.39;101184.03;6641427;26;33120;-88
2022/10/12 14:04:34;;;;;;;14.32;7.65;;;;;;;19.55;60.26;101184.38;6661759;26;34092;-87
2022/10/12 14:07:38;;;;;;;10.88;7.37;;;;;;;19.43;58.42;101184.22;6661307;26;34698;-87
2022/10/12 14:10:43;;;;;;;13.65;8.00;;;;;;;19.22;59.58;101182.63;6641588;26;32222;-87
2022/10/12 14:13:46;;;;;;;13.15;7.90;;;;;;;19.11;59.86;101184.12;6662322;26;34593;-87
2022/10/12 14:16:50;;;;;;;10.70;7.30;;;;;;;19.13;59.69;101190.22;6642183;26;33727;-87
2022/10/12 14:19:55;;;;;;;10.10;7.28;;;;;;;18.96;62.48;101186.25;6642058;26;34049;-87
2022/10/12 14:23:00;;;;;;;11.02;7.20;;;;;;;18.96;60.85;101183.53;6663245;26;34154;-88
2022/10/12 14:26:02;;;;;;;12.82;7.65;;;;;;;19.02;61.62;101179.94;6665188;26;34974;-87
2022/10/12 14:29:44;;;;;;;15.35;7.50;;;;;;;18.98;60.39;101176.81;6663604;26;33682;-87
2022/10/12 14:32:49;;;;;;;12.65;7.57;;;;;;;19.00;62.87;101174.69;6532594;27;34140;-87
2022/10/12 14:36:13;;;;;;;13.18;7.60;;;;;;;19.11;61.07;101175.09;6507316;27;32489;-87
2022/10/12 14:39:18;;;;;;;12.57;7.20;;;;;;;19.23;59.76;101174.19;6641767;26;33599;-87
2022/10/12 14:42:30;;;;;;;13.73;7.68;;;;;;;18.95;60.42;101176.37;6662539;26;34470;-87
2022/10/12 14:45:33;;;;;;;12.07;7.43;;;;;;;18.97;61.28;101161.47;6665177;26;34076;-86
2022/10/12 14:48:36;;;;;;;13.35;7.97;;;;;;;18.98;62.26;101173.22;6662443;26;34094;-87
2022/10/12 14:51:38;;;;;;;11.80;8.00;;;;;;;18.83;62.44;101173.47;6643966;26;32239;-87
2022/10/12 14:54:42;;;;;;;10.27;7.43;;;;;;;18.73;62.95;101167.59;6663634;26;33872;-87
2022/10/12 14:57:45;;;;;;;13.13;8.02;;;;;;;18.60;64.24;101168.44;6663096;26;35215;-87
2022/10/12 15:00:48;;;;;;;15.05;8.63;;;;;;;18.43;64.43;101173.50;6644436;26;32723;-87
2022/10/12 15:03:51;;;;;;;17.08;9.38;;;;;;;18.38;66.81;101170.56;6672796;26;33800;-87
2022/10/12 15:06:53;;;;;;;15.73;8.07;;;;;;;18.31;65.11;101164.25;6647327;26;33735;-87
2022/10/12 15:09:56;;;;;;;15.05;8.45;;;;;;;18.26;66.20;101169.50;6663030;26;34787;-86
2022/10/12 15:12:59;;;;;;;12.55;8.38;;;;;;;18.12;67.56;101172.22;6662797;26;34364;-86
2022/10/12 15:16:02;;;;;;;14.65;8.25;;;;;;;17.99;67.68;101165.91;6665481;26;33502;-86
2022/10/12 15:19:05;;;;;;;13.00;8.00;;;;;;;17.90;68.07;101168.84;6681492;26;33969;-88
2022/10/12 15:22:19;;;;;;;15.38;8.40;;;;;;;17.83;68.63;101165.25;6667636;26;34993;-87
2022/10/12 15:25:27;;;;;;;12.82;8.07;;;;;;;17.69;68.80;101169.78;6641224;26;32818;-87
2022/10/12 15:28:29;;;;;;;14.52;8.38;;;;;;;17.57;69.89;101165.16;6661317;26;33972;-87
2022/10/12 15:31:32;;;;;;;17.60;8.70;;;;;;;17.41;70.69;101163.66;6641485;26;32347;-87
2022/10/12 15:34:35;;;;;;;14.90;8.40;;;;;;;17.28;72.56;101164.41;6641089;26;32357;-87
2022/10/12 15:37:38;;;;;;;18.87;8.32;;;;;;;17.15;73.08;101159.75;6661859;26;33545;-87
2022/10/12 15:40:43;;;;;;;14.75;7.95;;;;;;;17.00;77.59;101167.22;6641497;26;32164;-87
2022/10/12 15:43:46;;;;;;;12.98;8.00;;;;;;;16.88;78.60;101169.66;6641860;26;32399;-87
2022/10/12 15:46:53;;;;;;;15.20;8.27;;;;;;;16.74;78.77;101165.97;6641246;26;32905;-87
2022/10/12 15:49:56;;;;;;;13.77;8.80;;;;;;;16.63;78.36;101162.97;6642030;26;33359;-91
2022/10/12 15:52:58;;;;;;;14.50;8.82;;;;;;;16.54;78.13;101175.87;6661615;26;34158;-91
2022/10/12 15:56:06;;;;;;;16.92;9.63;;;;;;;16.47;78.52;101166.84;6661675;26;33594;-91
